sensor_id;sensor_type;location;lat;lon;timestamp;P1;durP1;ratioP1;P2;durP2;ratioP2
58015;SDS011;43809;52.110;20.964;2022-12-10T00:01:13;49.37;;;23.27;;
58015;SDS011;43809;52.110;20.964;2022-12-10T00:03:13;55.08;;;25.98;;
58015;SDS011;43809;52.110;20.964;2022-12-10T00:05:14;57.08;;;27.20;;
58015;SDS011;43809;52.110;20.964;2022-12-10T00:07:14;58.33;;;26.83;;
58015;SDS011;43809;52.110;20.964;2022-12-10T00:09:15;58.60;;;27.25;;
58015;SDS011;43809;52.110;20.964;2022-12-10T00:11:16;58.08;;;25.77;;
58015;SDS011;43809;52.110;20.964;2022-12-10T00:13:17;52.60;;;24.60;;
58015;SDS011;43809;52.110;20.964;2022-12-10T00:15:17;56.58;;;26.30;;
58015;SDS011;43809;52.110;20.964;2022-12-10T00:17:17;52.27;;;25.27;;
58015;SDS011;43809;52.110;20.964;2022-12-10T00:19:17;49.77;;;23.73;;
58015;SDS011;43809;52.110;20.964;2022-12-10T00:21:20;54.03;;;24.33;;
58015;SDS011;43809;52.110;20.964;2022-12-10T00:23:20;54.60;;;25.77;;
58015;SDS011;43809;52.110;20.964;2022-12-10T00:25:21;49.85;;;23.88;;
58015;SDS011;43809;52.110;20.964;2022-12-10T00:27:21;50.50;;;22.33;;
58015;SDS011;43809;52.110;20.964;2022-12-10T00:29:21;54.07;;;24.77;;
58015;SDS011;43809;52.110;20.964;2022-12-10T00:31:25;66.87;;;32.13;;
58015;SDS011;43809;52.110;20.964;2022-12-10T00:33:26;61.88;;;27.95;;
58015;SDS011;43809;52.110;20.964;2022-12-10T00:35:26;55.78;;;26.17;;
58015;SDS011;43809;52.110;20.964;2022-12-10T00:37:26;57.63;;;26.45;;
58015;SDS011;43809;52.110;20.964;2022-12-10T00:39:26;54.80;;;25.27;;
58015;SDS011;43809;52.110;20.964;2022-12-10T00:41:30;77.50;;;34.60;;
58015;SDS011;43809;52.110;20.964;2022-12-10T00:43:31;72.80;;;30.17;;
58015;SDS011;43809;52.110;20.964;2022-12-10T00:45:31;62.67;;;29.73;;
58015;SDS011;43809;52.110;20.964;2022-12-10T00:47:31;66.95;;;30.73;;
58015;SDS011;43809;52.110;20.964;2022-12-10T00:49:31;71.80;;;32.30;;
58015;SDS011;43809;52.110;20.964;2022-12-10T00:51:31;64.73;;;31.13;;
58015;SDS011;43809;52.110;20.964;2022-12-10T00:53:32;55.03;;;26.00;;
58015;SDS011;43809;52.110;20.964;2022-12-10T00:55:33;72.13;;;32.55;;
58015;SDS011;43809;52.110;20.964;2022-12-10T00:57:33;68.03;;;30.75;;
58015;SDS011;43809;52.110;20.964;2022-12-10T00:59:33;67.00;;;30.63;;
58015;SDS011;43809;52.110;20.964;2022-12-10T01:01:37;70.80;;;30.15;;
58015;SDS011;43809;52.110;20.964;2022-12-10T01:03:38;67.47;;;27.48;;
58015;SDS011;43809;52.110;20.964;2022-12-10T01:05:38;62.88;;;28.00;;
58015;SDS011;43809;52.110;20.964;2022-12-10T01:07:38;62.07;;;26.73;;
58015;SDS011;43809;52.110;20.964;2022-12-10T01:09:39;58.67;;;26.17;;
58015;SDS011;43809;52.110;20.964;2022-12-10T01:11:40;53.43;;;25.73;;
58015;SDS011;43809;52.110;20.964;2022-12-10T01:13:41;55.70;;;26.27;;
58015;SDS011;43809;52.110;20.964;2022-12-10T01:15:41;56.83;;;26.98;;
58015;SDS011;43809;52.110;20.964;2022-12-10T01:17:41;50.60;;;23.37;;
58015;SDS011;43809;52.110;20.964;2022-12-10T01:19:42;62.90;;;28.77;;
58015;SDS011;43809;52.110;20.964;2022-12-10T01:21:42;59.97;;;26.23;;
58015;SDS011;43809;52.110;20.964;2022-12-10T01:23:42;56.93;;;24.73;;
58015;SDS011;43809;52.110;20.964;2022-12-10T01:25:43;53.97;;;24.58;;
58015;SDS011;43809;52.110;20.964;2022-12-10T01:27:45;52.93;;;24.53;;
58015;SDS011;43809;52.110;20.964;2022-12-10T01:29:45;65.20;;;27.35;;
58015;SDS011;43809;52.110;20.964;2022-12-10T01:31:45;53.28;;;23.92;;
58015;SDS011;43809;52.110;20.964;2022-12-10T01:33:50;57.50;;;26.25;;
58015;SDS011;43809;52.110;20.964;2022-12-10T01:35:50;63.40;;;27.42;;
58015;SDS011;43809;52.110;20.964;2022-12-10T01:37:50;59.67;;;26.63;;
58015;SDS011;43809;52.110;20.964;2022-12-10T01:39:51;69.55;;;29.35;;
58015;SDS011;43809;52.110;20.964;2022-12-10T01:41:52;58.27;;;25.33;;
58015;SDS011;43809;52.110;20.964;2022-12-10T01:44:01;60.00;;;27.30;;
58015;SDS011;43809;52.110;20.964;2022-12-10T01:46:02;66.78;;;29.60;;
58015;SDS011;43809;52.110;20.964;2022-12-10T01:48:02;59.90;;;28.05;;
58015;SDS011;43809;52.110;20.964;2022-12-10T01:50:03;64.30;;;27.90;;
58015;SDS011;43809;52.110;20.964;2022-12-10T01:52:04;61.28;;;27.55;;
58015;SDS011;43809;52.110;20.964;2022-12-10T01:54:06;58.35;;;24.98;;
58015;SDS011;43809;52.110;20.964;2022-12-10T01:56:08;56.23;;;24.13;;
58015;SDS011;43809;52.110;20.964;2022-12-10T01:58:09;51.22;;;23.63;;
58015;SDS011;43809;52.110;20.964;2022-12-10T02:00:09;51.35;;;22.33;;
58015;SDS011;43809;52.110;20.964;2022-12-10T02:04:31;54.05;;;24.23;;
58015;SDS011;43809;52.110;20.964;2022-12-10T02:08:53;55.08;;;24.42;;
58015;SDS011;43809;52.110;20.964;2022-12-10T02:11:12;58.60;;;25.55;;
58015;SDS011;43809;52.110;20.964;2022-12-10T02:13:24;55.83;;;24.73;;
58015;SDS011;43809;52.110;20.964;2022-12-10T02:15:29;59.00;;;24.90;;
58015;SDS011;43809;52.110;20.964;2022-12-10T02:19:44;58.08;;;26.65;;
58015;SDS011;43809;52.110;20.964;2022-12-10T02:21:50;53.58;;;23.90;;
58015;SDS011;43809;52.110;20.964;2022-12-10T02:23:52;63.20;;;27.55;;
58015;SDS011;43809;52.110;20.964;2022-12-10T02:30:34;58.78;;;25.65;;
58015;SDS011;43809;52.110;20.964;2022-12-10T02:32:38;61.90;;;24.50;;
58015;SDS011;43809;52.110;20.964;2022-12-10T02:34:42;62.90;;;26.77;;
58015;SDS011;43809;52.110;20.964;2022-12-10T02:36:44;59.75;;;25.88;;
58015;SDS011;43809;52.110;20.964;2022-12-10T02:40:47;52.75;;;22.00;;
58015;SDS011;43809;52.110;20.964;2022-12-10T02:42:49;55.35;;;24.08;;
58015;SDS011;43809;52.110;20.964;2022-12-10T02:44:50;55.22;;;23.90;;
58015;SDS011;43809;52.110;20.964;2022-12-10T02:46:52;52.83;;;22.87;;
58015;SDS011;43809;52.110;20.964;2022-12-10T02:48:53;54.42;;;23.38;;
58015;SDS011;43809;52.110;20.964;2022-12-10T02:50:53;54.92;;;23.58;;
58015;SDS011;43809;52.110;20.964;2022-12-10T02:52:53;45.95;;;22.33;;
58015;SDS011;43809;52.110;20.964;2022-12-10T02:54:53;48.00;;;20.88;;
58015;SDS011;43809;52.110;20.964;2022-12-10T02:56:54;47.08;;;20.17;;
58015;SDS011;43809;52.110;20.964;2022-12-10T02:59:11;53.00;;;23.00;;
58015;SDS011;43809;52.110;20.964;2022-12-10T03:01:19;51.90;;;22.27;;
58015;SDS011;43809;52.110;20.964;2022-12-10T03:03:36;54.88;;;22.52;;
58015;SDS011;43809;52.110;20.964;2022-12-10T03:07:51;58.40;;;25.30;;
58015;SDS011;43809;52.110;20.964;2022-12-10T03:09:56;60.78;;;24.73;;
58015;SDS011;43809;52.110;20.964;2022-12-10T03:12:01;51.65;;;24.95;;
58015;SDS011;43809;52.110;20.964;2022-12-10T03:14:06;56.25;;;24.98;;
58015;SDS011;43809;52.110;20.964;2022-12-10T03:16:08;50.92;;;21.23;;
58015;SDS011;43809;52.110;20.964;2022-12-10T03:18:08;54.35;;;23.63;;
58015;SDS011;43809;52.110;20.964;2022-12-10T03:20:11;51.75;;;21.40;;
58015;SDS011;43809;52.110;20.964;2022-12-10T03:22:12;52.55;;;23.13;;
58015;SDS011;43809;52.110;20.964;2022-12-10T03:24:14;50.53;;;21.27;;
58015;SDS011;43809;52.110;20.964;2022-12-10T03:26:15;46.20;;;20.58;;
58015;SDS011;43809;52.110;20.964;2022-12-10T03:28:18;52.47;;;22.30;;
58015;SDS011;43809;52.110;20.964;2022-12-10T03:30:18;46.60;;;19.50;;
58015;SDS011;43809;52.110;20.964;2022-12-10T03:32:19;41.50;;;18.10;;
58015;SDS011;43809;52.110;20.964;2022-12-10T03:34:20;42.67;;;20.40;;
58015;SDS011;43809;52.110;20.964;2022-12-10T03:36:21;42.20;;;19.98;;
58015;SDS011;43809;52.110;20.964;2022-12-10T03:38:21;40.80;;;18.98;;
58015;SDS011;43809;52.110;20.964;2022-12-10T03:40:22;33.05;;;16.25;;
58015;SDS011;43809;52.110;20.964;2022-12-10T03:42:23;37.90;;;16.08;;
58015;SDS011;43809;52.110;20.964;2022-12-10T03:44:30;38.30;;;17.90;;
58015;SDS011;43809;52.110;20.964;2022-12-10T03:46:30;36.17;;;17.75;;
58015;SDS011;43809;52.110;20.964;2022-12-10T03:48:31;39.83;;;17.02;;
58015;SDS011;43809;52.110;20.964;2022-12-10T03:50:31;35.78;;;15.90;;
58015;SDS011;43809;52.110;20.964;2022-12-10T03:52:31;31.33;;;13.77;;
58015;SDS011;43809;52.110;20.964;2022-12-10T03:54:31;38.87;;;18.50;;
58015;SDS011;43809;52.110;20.964;2022-12-10T03:56:31;32.42;;;14.60;;
58015;SDS011;43809;52.110;20.964;2022-12-10T03:58:32;33.25;;;15.07;;
58015;SDS011;43809;52.110;20.964;2022-12-10T04:00:32;42.63;;;18.05;;
58015;SDS011;43809;52.110;20.964;2022-12-10T04:02:32;42.20;;;18.00;;
58015;SDS011;43809;52.110;20.964;2022-12-10T04:04:32;41.75;;;17.98;;
58015;SDS011;43809;52.110;20.964;2022-12-10T04:06:32;44.28;;;19.05;;
58015;SDS011;43809;52.110;20.964;2022-12-10T04:08:33;37.08;;;16.67;;
58015;SDS011;43809;52.110;20.964;2022-12-10T04:10:37;38.45;;;16.45;;
58015;SDS011;43809;52.110;20.964;2022-12-10T04:12:40;37.30;;;16.65;;
58015;SDS011;43809;52.110;20.964;2022-12-10T04:14:40;40.45;;;17.63;;
58015;SDS011;43809;52.110;20.964;2022-12-10T04:16:59;44.42;;;18.90;;
58015;SDS011;43809;52.110;20.964;2022-12-10T04:19:04;45.03;;;19.70;;
58015;SDS011;43809;52.110;20.964;2022-12-10T04:21:04;45.45;;;18.92;;
58015;SDS011;43809;52.110;20.964;2022-12-10T04:23:23;43.72;;;18.48;;
58015;SDS011;43809;52.110;20.964;2022-12-10T04:25:42;43.53;;;19.08;;
58015;SDS011;43809;52.110;20.964;2022-12-10T04:28:01;40.03;;;18.30;;
58015;SDS011;43809;52.110;20.964;2022-12-10T04:30:02;40.60;;;16.35;;
58015;SDS011;43809;52.110;20.964;2022-12-10T04:32:02;35.58;;;16.30;;
58015;SDS011;43809;52.110;20.964;2022-12-10T04:34:02;38.10;;;16.45;;
58015;SDS011;43809;52.110;20.964;2022-12-10T04:36:03;36.28;;;16.08;;
58015;SDS011;43809;52.110;20.964;2022-12-10T04:38:03;39.20;;;16.65;;
58015;SDS011;43809;52.110;20.964;2022-12-10T04:40:03;41.75;;;17.17;;
58015;SDS011;43809;52.110;20.964;2022-12-10T04:42:04;34.85;;;15.93;;
58015;SDS011;43809;52.110;20.964;2022-12-10T04:44:04;35.55;;;15.57;;
58015;SDS011;43809;52.110;20.964;2022-12-10T04:46:04;38.83;;;15.88;;
58015;SDS011;43809;52.110;20.964;2022-12-10T04:48:05;40.92;;;16.70;;
58015;SDS011;43809;52.110;20.964;2022-12-10T04:50:05;37.80;;;16.92;;
58015;SDS011;43809;52.110;20.964;2022-12-10T04:52:06;37.35;;;15.93;;
58015;SDS011;43809;52.110;20.964;2022-12-10T04:54:06;38.28;;;17.60;;
58015;SDS011;43809;52.110;20.964;2022-12-10T04:56:07;47.30;;;20.48;;
58015;SDS011;43809;52.110;20.964;2022-12-10T04:58:10;43.17;;;17.83;;
58015;SDS011;43809;52.110;20.964;2022-12-10T05:00:10;43.90;;;19.02;;
58015;SDS011;43809;52.110;20.964;2022-12-10T05:02:12;41.67;;;17.42;;
58015;SDS011;43809;52.110;20.964;2022-12-10T05:04:13;44.33;;;17.67;;
58015;SDS011;43809;52.110;20.964;2022-12-10T05:06:14;34.28;;;15.45;;
58015;SDS011;43809;52.110;20.964;2022-12-10T05:08:15;36.92;;;15.60;;
58015;SDS011;43809;52.110;20.964;2022-12-10T05:10:15;34.95;;;14.65;;
58015;SDS011;43809;52.110;20.964;2022-12-10T05:12:15;37.72;;;16.17;;
58015;SDS011;43809;52.110;20.964;2022-12-10T05:14:15;40.33;;;18.00;;
58015;SDS011;43809;52.110;20.964;2022-12-10T05:16:17;37.00;;;15.73;;
58015;SDS011;43809;52.110;20.964;2022-12-10T05:18:17;33.70;;;14.87;;
58015;SDS011;43809;52.110;20.964;2022-12-10T05:20:17;30.47;;;14.23;;
58015;SDS011;43809;52.110;20.964;2022-12-10T05:22:18;33.87;;;14.10;;
58015;SDS011;43809;52.110;20.964;2022-12-10T05:24:37;31.92;;;13.93;;
58015;SDS011;43809;52.110;20.964;2022-12-10T05:26:37;36.40;;;15.18;;
58015;SDS011;43809;52.110;20.964;2022-12-10T05:28:38;37.53;;;15.90;;
58015;SDS011;43809;52.110;20.964;2022-12-10T05:30:39;32.60;;;14.15;;
58015;SDS011;43809;52.110;20.964;2022-12-10T05:32:39;36.73;;;13.63;;
58015;SDS011;43809;52.110;20.964;2022-12-10T05:34:39;36.13;;;14.32;;
58015;SDS011;43809;52.110;20.964;2022-12-10T05:36:39;39.50;;;16.63;;
58015;SDS011;43809;52.110;20.964;2022-12-10T05:38:40;35.88;;;15.82;;
58015;SDS011;43809;52.110;20.964;2022-12-10T05:40:40;36.33;;;14.57;;
58015;SDS011;43809;52.110;20.964;2022-12-10T05:42:40;35.13;;;14.43;;
58015;SDS011;43809;52.110;20.964;2022-12-10T05:44:40;38.08;;;16.27;;
58015;SDS011;43809;52.110;20.964;2022-12-10T05:46:40;32.47;;;14.30;;
58015;SDS011;43809;52.110;20.964;2022-12-10T05:48:41;30.05;;;14.23;;
58015;SDS011;43809;52.110;20.964;2022-12-10T05:50:41;34.35;;;14.02;;
58015;SDS011;43809;52.110;20.964;2022-12-10T05:52:41;39.33;;;15.63;;
58015;SDS011;43809;52.110;20.964;2022-12-10T05:54:42;35.38;;;15.43;;
58015;SDS011;43809;52.110;20.964;2022-12-10T05:56:42;40.08;;;16.27;;
58015;SDS011;43809;52.110;20.964;2022-12-10T05:58:43;34.87;;;15.23;;
58015;SDS011;43809;52.110;20.964;2022-12-10T06:00:43;34.38;;;14.75;;
58015;SDS011;43809;52.110;20.964;2022-12-10T06:02:43;32.22;;;13.55;;
58015;SDS011;43809;52.110;20.964;2022-12-10T06:04:43;38.58;;;15.13;;
58015;SDS011;43809;52.110;20.964;2022-12-10T06:06:44;34.58;;;14.25;;
58015;SDS011;43809;52.110;20.964;2022-12-10T06:08:46;37.08;;;14.68;;
58015;SDS011;43809;52.110;20.964;2022-12-10T06:10:46;35.67;;;15.00;;
58015;SDS011;43809;52.110;20.964;2022-12-10T06:12:46;35.38;;;15.38;;
58015;SDS011;43809;52.110;20.964;2022-12-10T06:14:47;31.73;;;12.38;;
58015;SDS011;43809;52.110;20.964;2022-12-10T06:16:47;28.27;;;12.27;;
58015;SDS011;43809;52.110;20.964;2022-12-10T06:18:47;34.33;;;13.98;;
58015;SDS011;43809;52.110;20.964;2022-12-10T06:20:48;32.92;;;14.77;;
58015;SDS011;43809;52.110;20.964;2022-12-10T06:22:48;33.08;;;14.30;;
58015;SDS011;43809;52.110;20.964;2022-12-10T06:24:48;33.42;;;14.57;;
58015;SDS011;43809;52.110;20.964;2022-12-10T06:26:48;34.83;;;14.37;;
58015;SDS011;43809;52.110;20.964;2022-12-10T06:28:49;32.28;;;12.85;;
58015;SDS011;43809;52.110;20.964;2022-12-10T06:30:49;37.28;;;14.35;;
58015;SDS011;43809;52.110;20.964;2022-12-10T06:32:50;36.25;;;14.55;;
58015;SDS011;43809;52.110;20.964;2022-12-10T06:34:50;35.65;;;15.75;;
58015;SDS011;43809;52.110;20.964;2022-12-10T06:36:51;39.40;;;14.85;;
58015;SDS011;43809;52.110;20.964;2022-12-10T06:38:51;31.40;;;14.20;;
58015;SDS011;43809;52.110;20.964;2022-12-10T06:40:51;33.92;;;13.65;;
58015;SDS011;43809;52.110;20.964;2022-12-10T06:42:52;36.13;;;13.98;;
58015;SDS011;43809;52.110;20.964;2022-12-10T06:44:52;33.67;;;14.52;;
58015;SDS011;43809;52.110;20.964;2022-12-10T06:46:52;32.63;;;14.03;;
58015;SDS011;43809;52.110;20.964;2022-12-10T06:48:53;38.05;;;15.98;;
58015;SDS011;43809;52.110;20.964;2022-12-10T06:50:53;36.72;;;15.63;;
58015;SDS011;43809;52.110;20.964;2022-12-10T06:52:55;45.70;;;19.52;;
58015;SDS011;43809;52.110;20.964;2022-12-10T06:54:55;40.97;;;17.15;;
58015;SDS011;43809;52.110;20.964;2022-12-10T06:56:56;40.47;;;21.48;;
58015;SDS011;43809;52.110;20.964;2022-12-10T06:58:56;45.55;;;24.73;;
58015;SDS011;43809;52.110;20.964;2022-12-10T07:01:02;35.40;;;19.60;;
58015;SDS011;43809;52.110;20.964;2022-12-10T07:03:02;33.45;;;16.38;;
58015;SDS011;43809;52.110;20.964;2022-12-10T07:05:05;37.83;;;14.48;;
58015;SDS011;43809;52.110;20.964;2022-12-10T07:07:06;33.88;;;14.73;;
58015;SDS011;43809;52.110;20.964;2022-12-10T07:09:06;35.22;;;13.80;;
58015;SDS011;43809;52.110;20.964;2022-12-10T07:11:07;34.88;;;14.27;;
58015;SDS011;43809;52.110;20.964;2022-12-10T07:13:08;33.65;;;14.75;;
58015;SDS011;43809;52.110;20.964;2022-12-10T07:15:08;34.67;;;13.82;;
58015;SDS011;43809;52.110;20.964;2022-12-10T07:17:08;33.55;;;13.18;;
58015;SDS011;43809;52.110;20.964;2022-12-10T07:19:09;33.30;;;13.38;;
58015;SDS011;43809;52.110;20.964;2022-12-10T07:21:16;29.10;;;12.38;;
58015;SDS011;43809;52.110;20.964;2022-12-10T07:23:17;35.40;;;12.77;;
58015;SDS011;43809;52.110;20.964;2022-12-10T07:25:18;27.42;;;11.35;;
58015;SDS011;43809;52.110;20.964;2022-12-10T07:27:18;33.67;;;13.30;;
58015;SDS011;43809;52.110;20.964;2022-12-10T07:29:19;32.20;;;14.00;;
58015;SDS011;43809;52.110;20.964;2022-12-10T07:31:20;32.75;;;14.75;;
58015;SDS011;43809;52.110;20.964;2022-12-10T07:33:20;36.40;;;14.77;;
58015;SDS011;43809;52.110;20.964;2022-12-10T07:35:20;34.22;;;14.40;;
58015;SDS011;43809;52.110;20.964;2022-12-10T07:37:20;37.15;;;14.38;;
58015;SDS011;43809;52.110;20.964;2022-12-10T07:39:21;37.30;;;14.77;;
58015;SDS011;43809;52.110;20.964;2022-12-10T07:41:21;34.20;;;13.82;;
58015;SDS011;43809;52.110;20.964;2022-12-10T07:43:22;30.58;;;13.02;;
58015;SDS011;43809;52.110;20.964;2022-12-10T07:45:22;31.45;;;13.32;;
58015;SDS011;43809;52.110;20.964;2022-12-10T07:47:22;32.25;;;13.27;;
58015;SDS011;43809;52.110;20.964;2022-12-10T07:49:22;40.47;;;15.52;;
58015;SDS011;43809;52.110;20.964;2022-12-10T07:51:23;39.20;;;15.60;;
58015;SDS011;43809;52.110;20.964;2022-12-10T07:53:23;41.63;;;16.33;;
58015;SDS011;43809;52.110;20.964;2022-12-10T07:55:23;50.55;;;19.88;;
58015;SDS011;43809;52.110;20.964;2022-12-10T07:57:23;44.63;;;17.40;;
58015;SDS011;43809;52.110;20.964;2022-12-10T07:59:23;42.60;;;15.73;;
58015;SDS011;43809;52.110;20.964;2022-12-10T08:01:24;46.70;;;16.58;;
58015;SDS011;43809;52.110;20.964;2022-12-10T08:03:25;42.10;;;17.00;;
58015;SDS011;43809;52.110;20.964;2022-12-10T08:05:25;42.25;;;15.65;;
58015;SDS011;43809;52.110;20.964;2022-12-10T08:07:26;42.92;;;16.23;;
58015;SDS011;43809;52.110;20.964;2022-12-10T08:09:26;46.08;;;16.50;;
58015;SDS011;43809;52.110;20.964;2022-12-10T08:11:27;44.53;;;17.45;;
58015;SDS011;43809;52.110;20.964;2022-12-10T08:13:28;46.00;;;16.70;;
58015;SDS011;43809;52.110;20.964;2022-12-10T08:15:28;37.10;;;14.73;;
58015;SDS011;43809;52.110;20.964;2022-12-10T08:17:31;50.70;;;18.73;;
58015;SDS011;43809;52.110;20.964;2022-12-10T08:19:34;48.42;;;17.98;;
58015;SDS011;43809;52.110;20.964;2022-12-10T08:21:34;47.38;;;18.60;;
58015;SDS011;43809;52.110;20.964;2022-12-10T08:23:35;53.08;;;18.52;;
58015;SDS011;43809;52.110;20.964;2022-12-10T08:25:44;57.53;;;23.30;;
58015;SDS011;43809;52.110;20.964;2022-12-10T08:27:44;56.08;;;21.58;;
58015;SDS011;43809;52.110;20.964;2022-12-10T08:29:45;44.90;;;18.45;;
58015;SDS011;43809;52.110;20.964;2022-12-10T08:31:45;43.65;;;16.70;;
58015;SDS011;43809;52.110;20.964;2022-12-10T08:33:45;36.00;;;13.77;;
58015;SDS011;43809;52.110;20.964;2022-12-10T08:35:46;36.90;;;14.30;;
58015;SDS011;43809;52.110;20.964;2022-12-10T08:37:48;34.25;;;13.60;;
58015;SDS011;43809;52.110;20.964;2022-12-10T08:39:49;34.65;;;13.25;;
58015;SDS011;43809;52.110;20.964;2022-12-10T08:41:49;32.65;;;13.32;;
58015;SDS011;43809;52.110;20.964;2022-12-10T08:43:50;29.17;;;12.20;;
58015;SDS011;43809;52.110;20.964;2022-12-10T08:45:51;33.17;;;12.33;;
58015;SDS011;43809;52.110;20.964;2022-12-10T08:47:51;29.42;;;11.73;;
58015;SDS011;43809;52.110;20.964;2022-12-10T08:49:52;35.67;;;12.75;;
58015;SDS011;43809;52.110;20.964;2022-12-10T08:51:52;31.25;;;11.52;;
58015;SDS011;43809;52.110;20.964;2022-12-10T08:53:52;33.13;;;13.35;;
58015;SDS011;43809;52.110;20.964;2022-12-10T08:55:53;28.17;;;11.70;;
58015;SDS011;43809;52.110;20.964;2022-12-10T09:03:20;46.33;;;23.85;;
58015;SDS011;43809;52.110;20.964;2022-12-10T09:05:20;45.92;;;22.85;;
58015;SDS011;43809;52.110;20.964;2022-12-10T09:07:20;41.08;;;16.95;;
58015;SDS011;43809;52.110;20.964;2022-12-10T09:09:20;45.45;;;18.42;;
58015;SDS011;43809;52.110;20.964;2022-12-10T09:11:22;42.33;;;18.65;;
58015;SDS011;43809;52.110;20.964;2022-12-10T09:13:23;46.90;;;20.00;;
58015;SDS011;43809;52.110;20.964;2022-12-10T09:15:23;48.40;;;20.63;;
58015;SDS011;43809;52.110;20.964;2022-12-10T09:17:24;40.80;;;18.83;;
58015;SDS011;43809;52.110;20.964;2022-12-10T09:19:24;40.47;;;17.33;;
58015;SDS011;43809;52.110;20.964;2022-12-10T09:21:24;45.28;;;18.15;;
58015;SDS011;43809;52.110;20.964;2022-12-10T09:23:24;54.60;;;22.33;;
58015;SDS011;43809;52.110;20.964;2022-12-10T09:25:25;55.75;;;22.42;;
58015;SDS011;43809;52.110;20.964;2022-12-10T09:27:25;61.05;;;22.73;;
58015;SDS011;43809;52.110;20.964;2022-12-10T09:29:25;65.80;;;26.23;;
58015;SDS011;43809;52.110;20.964;2022-12-10T09:31:25;57.03;;;21.83;;
58015;SDS011;43809;52.110;20.964;2022-12-10T09:33:26;52.03;;;20.65;;
58015;SDS011;43809;52.110;20.964;2022-12-10T09:35:27;64.57;;;23.63;;
58015;SDS011;43809;52.110;20.964;2022-12-10T09:37:27;58.28;;;20.02;;
58015;SDS011;43809;52.110;20.964;2022-12-10T09:39:30;45.47;;;17.77;;
58015;SDS011;43809;52.110;20.964;2022-12-10T09:41:35;50.25;;;21.48;;
58015;SDS011;43809;52.110;20.964;2022-12-10T09:43:49;57.95;;;20.52;;
58015;SDS011;43809;52.110;20.964;2022-12-10T09:52:05;82.93;;;31.15;;
58015;SDS011;43809;52.110;20.964;2022-12-10T09:54:22;64.97;;;24.42;;
58015;SDS011;43809;52.110;20.964;2022-12-10T09:56:29;55.53;;;20.08;;
58015;SDS011;43809;52.110;20.964;2022-12-10T09:58:31;62.65;;;24.08;;
58015;SDS011;43809;52.110;20.964;2022-12-10T10:00:39;53.50;;;21.35;;
58015;SDS011;43809;52.110;20.964;2022-12-10T10:02:39;45.63;;;17.45;;
58015;SDS011;43809;52.110;20.964;2022-12-10T10:04:40;53.28;;;20.67;;
58015;SDS011;43809;52.110;20.964;2022-12-10T10:06:40;48.15;;;18.77;;
58015;SDS011;43809;52.110;20.964;2022-12-10T10:08:42;51.20;;;20.65;;
58015;SDS011;43809;52.110;20.964;2022-12-10T10:10:44;51.25;;;20.85;;
58015;SDS011;43809;52.110;20.964;2022-12-10T10:12:44;44.42;;;18.38;;
58015;SDS011;43809;52.110;20.964;2022-12-10T10:14:45;42.63;;;17.70;;
58015;SDS011;43809;52.110;20.964;2022-12-10T10:16:49;37.05;;;16.17;;
58015;SDS011;43809;52.110;20.964;2022-12-10T10:18:54;36.97;;;14.88;;
58015;SDS011;43809;52.110;20.964;2022-12-10T10:20:56;55.35;;;22.38;;
58015;SDS011;43809;52.110;20.964;2022-12-10T10:22:56;51.58;;;21.13;;
58015;SDS011;43809;52.110;20.964;2022-12-10T10:24:57;44.83;;;19.60;;
58015;SDS011;43809;52.110;20.964;2022-12-10T10:27:11;37.85;;;15.65;;
58015;SDS011;43809;52.110;20.964;2022-12-10T10:29:12;38.05;;;15.45;;
58015;SDS011;43809;52.110;20.964;2022-12-10T10:31:16;53.77;;;19.87;;
58015;SDS011;43809;52.110;20.964;2022-12-10T10:33:17;48.60;;;17.77;;
58015;SDS011;43809;52.110;20.964;2022-12-10T10:35:25;46.83;;;17.77;;
58015;SDS011;43809;52.110;20.964;2022-12-10T10:37:27;39.83;;;17.33;;
58015;SDS011;43809;52.110;20.964;2022-12-10T10:39:31;38.40;;;14.63;;
58015;SDS011;43809;52.110;20.964;2022-12-10T10:41:31;33.60;;;14.90;;
58015;SDS011;43809;52.110;20.964;2022-12-10T10:43:42;36.25;;;16.73;;
58015;SDS011;43809;52.110;20.964;2022-12-10T10:45:43;33.42;;;14.93;;
58015;SDS011;43809;52.110;20.964;2022-12-10T10:47:50;31.50;;;13.07;;
58015;SDS011;43809;52.110;20.964;2022-12-10T10:50:05;32.83;;;13.43;;
58015;SDS011;43809;52.110;20.964;2022-12-10T10:52:12;33.90;;;14.57;;
58015;SDS011;43809;52.110;20.964;2022-12-10T10:54:30;33.63;;;13.15;;
58015;SDS011;43809;52.110;20.964;2022-12-10T10:56:31;30.35;;;13.57;;
58015;SDS011;43809;52.110;20.964;2022-12-10T10:58:45;30.02;;;11.68;;
58015;SDS011;43809;52.110;20.964;2022-12-10T11:00:58;31.20;;;12.02;;
58015;SDS011;43809;52.110;20.964;2022-12-10T11:02:59;31.90;;;12.75;;
58015;SDS011;43809;52.110;20.964;2022-12-10T11:05:04;30.48;;;13.15;;
58015;SDS011;43809;52.110;20.964;2022-12-10T11:07:16;30.48;;;11.93;;
58015;SDS011;43809;52.110;20.964;2022-12-10T11:09:24;37.55;;;14.60;;
58015;SDS011;43809;52.110;20.964;2022-12-10T11:11:34;28.58;;;12.52;;
58015;SDS011;43809;52.110;20.964;2022-12-10T11:13:36;29.50;;;12.40;;
58015;SDS011;43809;52.110;20.964;2022-12-10T11:15:47;29.70;;;12.02;;
58015;SDS011;43809;52.110;20.964;2022-12-10T11:17:54;30.95;;;12.45;;
58015;SDS011;43809;52.110;20.964;2022-12-10T11:19:56;34.47;;;13.15;;
58015;SDS011;43809;52.110;20.964;2022-12-10T11:23:59;28.67;;;12.27;;
58015;SDS011;43809;52.110;20.964;2022-12-10T11:26:06;30.73;;;13.05;;
58015;SDS011;43809;52.110;20.964;2022-12-10T11:30:17;31.10;;;13.68;;
58015;SDS011;43809;52.110;20.964;2022-12-10T11:32:35;32.58;;;14.50;;
58015;SDS011;43809;52.110;20.964;2022-12-10T11:34:52;33.47;;;14.43;;
58015;SDS011;43809;52.110;20.964;2022-12-10T11:37:02;30.10;;;13.13;;
58015;SDS011;43809;52.110;20.964;2022-12-10T11:41:18;31.10;;;14.63;;
58015;SDS011;43809;52.110;20.964;2022-12-10T11:43:33;32.10;;;13.65;;
58015;SDS011;43809;52.110;20.964;2022-12-10T11:50:13;30.38;;;13.10;;
58015;SDS011;43809;52.110;20.964;2022-12-10T11:52:26;30.25;;;13.35;;
58015;SDS011;43809;52.110;20.964;2022-12-10T11:54:33;35.50;;;15.63;;
58015;SDS011;43809;52.110;20.964;2022-12-10T12:09:40;37.03;;;15.63;;
58015;SDS011;43809;52.110;20.964;2022-12-10T12:11:46;32.42;;;14.52;;
58015;SDS011;43809;52.110;20.964;2022-12-10T12:14:00;29.77;;;11.80;;
58015;SDS011;43809;52.110;20.964;2022-12-10T12:16:09;27.52;;;11.60;;
58015;SDS011;43809;52.110;20.964;2022-12-10T12:18:21;30.98;;;12.10;;
58015;SDS011;43809;52.110;20.964;2022-12-10T12:20:25;23.23;;;10.57;;
58015;SDS011;43809;52.110;20.964;2022-12-10T12:22:33;24.88;;;9.88;;
58015;SDS011;43809;52.110;20.964;2022-12-10T12:24:35;23.15;;;10.43;;
58015;SDS011;43809;52.110;20.964;2022-12-10T12:26:39;24.58;;;11.45;;
58015;SDS011;43809;52.110;20.964;2022-12-10T12:28:46;21.77;;;9.82;;
58015;SDS011;43809;52.110;20.964;2022-12-10T12:30:48;22.65;;;9.73;;
58015;SDS011;43809;52.110;20.964;2022-12-10T12:32:55;28.45;;;11.07;;
58015;SDS011;43809;52.110;20.964;2022-12-10T12:34:59;32.33;;;13.82;;
58015;SDS011;43809;52.110;20.964;2022-12-10T12:37:00;36.55;;;13.52;;